»·PEaware :: AAL2389 KDFW-KSNA

AAL2389 :: KDFW-KSNA

FLIGHT INFORMATION

Flight Status: Arrived
Operator:
American Airlines
More flights by this operator :: More flights under this callsign
Pilot: Anonymous_3069 (3069)
Aircraft: AIRBUS A330-200
(A332)
More flights by this aircraft type
Origin: KDFW Dallas-Ft Worth Intl
United States
Destination: KSNA John Wayne-Orange Co
United States
More flights between these airports :: More routes between these airports
Route: +WSTEX1 CIKAN DCT EWM J4 BXK J212 CULTS DCT JOLAR KEFFR3
File this flight plan on PilotEdge
Remarks:
Altitude:
(Current/Filed)
40,000ft
Speed:
(Current/Filed)
468kts
Departed: 28-May-15 05:36 PM
Arrived: 28-May-15 08:19 PM
Distance/Time
Traveled:
1044nm/2:43
Distance/Time
To Go:
Arrived

Flight Plot

Page will automatically refresh every two minutes.


Map Options




Map Legend


Flown Route
Filed Route
Departure Airport
Arrival Airport
Navaid (VOR, NDB)
Fix

Horizontal Profiles

Position Reports

Time Latitude Longitude Heading Altitude Ground
Speed
28-May-15 16:41 32.900081 -97.043217 184 619ft 0kts
28-May-15 16:42 32.900081 -97.043217 184 619ft 0kts
28-May-15 16:43 32.900081 -97.043217 184 619ft 0kts
28-May-15 16:44 32.900081 -97.043217 184 619ft 0kts
28-May-15 16:45 32.900081 -97.043217 184 619ft 0kts
28-May-15 16:46 32.900081 -97.043217 184 619ft 0kts
28-May-15 16:47 32.900081 -97.043217 184 619ft 0kts
28-May-15 16:48 32.900081 -97.043217 184 619ft 0kts
28-May-15 16:49 32.900081 -97.043217 184 619ft 0kts
28-May-15 16:50 32.900081 -97.043217 184 619ft 0kts
28-May-15 16:51 32.900081 -97.043217 184 619ft 0kts
28-May-15 16:52 32.900081 -97.043217 184 619ft 0kts
28-May-15 16:53 32.900081 -97.043217 184 619ft 0kts
28-May-15 16:54 32.900081 -97.043217 184 619ft 0kts
28-May-15 16:55 32.900081 -97.043217 184 619ft 0kts
28-May-15 16:56 32.900081 -97.043217 184 619ft 0kts
28-May-15 16:57 32.900081 -97.043217 184 619ft 0kts
28-May-15 16:58 32.900081 -97.043217 184 619ft 0kts
28-May-15 16:59 32.900081 -97.043217 184 619ft 0kts
28-May-15 17:00 32.900081 -97.043217 184 619ft 0kts
28-May-15 17:01 32.900081 -97.043217 184 619ft 0kts
28-May-15 17:02 32.900081 -97.043217 184 619ft 0kts
28-May-15 17:03 32.900081 -97.043217 184 619ft 0kts
28-May-15 17:04 32.900081 -97.043217 184 619ft 0kts
28-May-15 17:05 32.900081 -97.043217 184 619ft 0kts
28-May-15 17:06 32.900081 -97.043217 184 619ft 0kts
28-May-15 17:07 32.900081 -97.043217 184 619ft 0kts
28-May-15 17:08 32.900081 -97.043217 184 619ft 0kts
28-May-15 17:09 32.900081 -97.043217 184 619ft 0kts
28-May-15 17:10 32.900081 -97.043217 184 619ft 0kts
28-May-15 17:11 32.900081 -97.043217 184 619ft 0kts
28-May-15 17:12 32.900081 -97.043217 184 619ft 0kts
28-May-15 17:13 32.900081 -97.043217 184 619ft 0kts
28-May-15 17:14 32.900081 -97.043217 184 619ft 0kts
28-May-15 17:15 32.900081 -97.043217 184 619ft 0kts
28-May-15 17:16 32.900081 -97.043217 184 619ft 0kts
28-May-15 17:17 32.900081 -97.043217 184 619ft 0kts
28-May-15 17:18 32.900081 -97.043217 184 619ft 0kts
28-May-15 17:19 32.900169 -97.043205 185 619ft 0kts
28-May-15 17:20 32.900487 -97.043214 167 619ft 0kts
28-May-15 17:21 32.900487 -97.043214 167 619ft 0kts
28-May-15 17:22 32.900485 -97.043214 167 619ft 0kts
28-May-15 17:23 32.901181 -97.042928 239 619ft 0kts
28-May-15 17:24 32.901155 -97.043154 270 619ft 0kts
28-May-15 17:25 32.901155 -97.043154 270 619ft 0kts
28-May-15 17:26 32.901155 -97.043154 270 619ft 0kts
28-May-15 17:27 32.901170 -97.044478 269 619ft 11kts
28-May-15 17:28 32.901565 -97.048825 354 619ft 11kts
28-May-15 17:29 32.906725 -97.048802 0 619ft 24kts
28-May-15 17:30 32.913484 -97.048736 0 619ft 22kts
28-May-15 17:31 32.914293 -97.050780 178 619ft 6kts
28-May-15 17:32 32.890526 -97.050828 178 925ft 160kts
28-May-15 17:33 32.846692 -97.052445 179 2530ft 190kts
28-May-15 17:34 32.781175 -97.053488 179 4153ft 259kts
28-May-15 17:35 32.712198 -97.068873 228 6991ft 283kts
28-May-15 17:36 32.692265 -97.158185 264 9606ft 307kts
28-May-15 17:37 32.689049 -97.255509 265 10669ft 371kts
28-May-15 17:38 32.686637 -97.365034 265 13145ft 389kts
28-May-15 17:39 32.683909 -97.489730 265 15787ft 406kts
28-May-15 17:40 32.680938 -97.620359 265 18219ft 423kts
28-May-15 17:41 32.676777 -97.755795 260 20556ft 436kts
28-May-15 17:42 32.666202 -97.886437 261 22820ft 444kts
28-May-15 17:43 32.654854 -98.030342 261 24597ft 464kts
28-May-15 17:44 32.643665 -98.174464 262 26110ft 483kts
28-May-15 17:45 32.630858 -98.329770 261 27985ft 492kts
28-May-15 17:46 32.617894 -98.484993 261 30788ft 473kts
28-May-15 17:47 32.605989 -98.624297 266 33848ft 439kts
28-May-15 17:48 32.596372 -98.736805 267 34006ft 448kts
28-May-15 17:49 32.585727 -98.859556 268 34000ft 454kts
28-May-15 17:50 32.599494 -98.963200 14 30931ft 378kts
28-May-15 17:51 32.695539 -98.965535 351 31521ft 363kts
28-May-15 17:52 32.714601 -99.043371 302 25083ft 398kts
28-May-15 17:53 32.716614 -99.158174 250 23923ft 358kts
28-May-15 17:54 32.669948 -99.242022 240 22535ft 298kts
28-May-15 17:55 32.623683 -99.320015 242 19357ft 292kts
28-May-15 17:56 32.579752 -99.398074 244 19728ft 284kts
28-May-15 17:57 32.540036 -99.499653 266 19762ft 387kts
28-May-15 17:58 32.531711 -99.633636 271 20623ft 440kts
28-May-15 17:59 32.523212 -99.775211 269 22774ft 458kts
28-May-15 18:00 32.514121 -99.920166 269 25091ft 464kts
28-May-15 18:01 32.504829 -100.066541 270 27216ft 470kts
28-May-15 18:02 32.496937 -100.180083 269 38292ft 449kts
28-May-15 18:03 32.479379 -100.314958 291 38449ft 412kts
28-May-15 18:04 32.516299 -100.431039 276 38139ft 428kts
28-May-15 18:05 32.528656 -100.545048 281 38103ft 434kts
28-May-15 18:06 32.545206 -100.678464 282 38083ft 434kts
28-May-15 18:07 32.562458 -100.817674 281 38063ft 458kts
28-May-15 18:08 32.580604 -100.965756 281 38065ft 492kts
28-May-15 18:09 32.599457 -101.120837 280 38064ft 525kts
28-May-15 18:10 32.618478 -101.276680 279 38049ft 497kts
28-May-15 18:11 32.636889 -101.431224 276 38089ft 487kts
28-May-15 18:12 32.655344 -101.588548 274 38088ft 496kts
28-May-15 18:13 32.673752 -101.747022 273 38064ft 508kts
28-May-15 18:14 32.692495 -101.910490 276 38062ft 521kts
28-May-15 18:15 32.711279 -102.075738 278 38053ft 519kts
28-May-15 18:16 32.729221 -102.232610 279 38042ft 518kts
28-May-15 18:17 32.747079 -102.393190 278 38041ft 519kts
28-May-15 18:18 32.765275 -102.559307 278 38040ft 519kts
28-May-15 18:19 32.783157 -102.724574 278 38041ft 518kts
28-May-15 18:20 32.800978 -102.891098 276 38035ft 522kts
28-May-15 18:21 32.818360 -103.056138 276 38032ft 522kts
28-May-15 18:22 32.835120 -103.213916 276 38031ft 523kts
28-May-15 18:23 32.852153 -103.379039 275 38031ft 520kts
28-May-15 18:24 32.868741 -103.542540 275 38031ft 520kts
28-May-15 18:25 32.885467 -103.709544 275 38023ft 523kts
28-May-15 18:26 32.901843 -103.875078 273 37960ft 527kts
28-May-15 18:27 32.917987 -104.041035 273 37942ft 526kts
28-May-15 18:28 32.933729 -104.201497 272 37941ft 526kts
28-May-15 18:29 32.949578 -104.368141 272 37941ft 515kts
28-May-15 18:30 32.964667 -104.529840 272 37941ft 521kts
28-May-15 18:31 32.979918 -104.695329 272 37939ft 524kts
28-May-15 18:32 32.994769 -104.858990 272 37939ft 515kts
28-May-15 18:33 33.008929 -105.017904 275 38072ft 479kts
28-May-15 18:34 33.022468 -105.168082 278 38176ft 493kts
28-May-15 18:35 33.036090 -105.323520 278 38181ft 492kts
28-May-15 18:36 33.049716 -105.482510 277 38141ft 494kts
28-May-15 18:37 33.063306 -105.643603 277 38093ft 496kts
28-May-15 18:38 33.076657 -105.804307 276 38014ft 497kts
28-May-15 18:39 33.089669 -105.963671 276 37980ft 494kts
28-May-15 18:40 33.102255 -106.119804 275 37972ft 490kts
28-May-15 18:41 33.114705 -106.272859 275 37972ft 489kts
28-May-15 18:42 33.126379 -106.422541 274 37959ft 503kts
28-May-15 18:43 33.138908 -106.585905 275 37964ft 503kts
28-May-15 18:44 33.151297 -106.750219 275 37992ft 515kts
28-May-15 18:45 33.163611 -106.916589 275 38001ft 515kts
28-May-15 18:46 33.175805 -107.084439 275 38001ft 515kts
28-May-15 18:47 33.187459 -107.243009 274 38001ft 515kts
28-May-15 18:48 33.199148 -107.409586 274 38001ft 515kts
28-May-15 18:49 33.210600 -107.576343 274 38001ft 515kts
28-May-15 18:50 33.221827 -107.743130 274 38001ft 515kts
28-May-15 18:51 33.232686 -107.908101 276 38072ft 503kts
28-May-15 18:52 33.242900 -108.065784 276 38121ft 484kts
28-May-15 18:53 33.252616 -108.214016 276 38121ft 492kts
28-May-15 18:54 33.262471 -108.371473 276 38121ft 489kts
28-May-15 18:55 33.272077 -108.529124 275 38121ft 485kts
28-May-15 18:56 33.281432 -108.686004 275 38120ft 485kts
28-May-15 18:57 33.290581 -108.842517 274 38038ft 493kts
28-May-15 18:58 33.299560 -108.999912 274 37953ft 505kts
28-May-15 18:59 33.308100 -109.149554 274 37951ft 505kts
28-May-15 19:00 33.317091 -109.310912 274 37951ft 505kts
28-May-15 19:01 33.324389 -109.447422 274 37951ft 505kts
28-May-15 19:02 33.332640 -109.605413 274 37951ft 506kts
28-May-15 19:03 33.340879 -109.767183 274 37951ft 506kts
28-May-15 19:04 33.348910 -109.929050 274 37951ft 505kts
28-May-15 19:05 33.356851 -110.093484 274 37950ft 506kts
28-May-15 19:06 33.364623 -110.251487 274 38001ft 504kts
28-May-15 19:07 33.372018 -110.412713 274 38101ft 497kts
28-May-15 19:08 33.378936 -110.568259 274 37988ft 501kts
28-May-15 19:09 33.385872 -110.728973 274 37930ft 503kts
28-May-15 19:10 33.392652 -110.890929 274 37931ft 504kts
28-May-15 19:11 33.399292 -111.054647 274 37931ft 506kts
28-May-15 19:12 33.405731 -111.210640 273 37931ft 508kts
28-May-15 19:13 33.412028 -111.374761 273 37931ft 509kts
28-May-15 19:14 33.417979 -111.536883 273 37919ft 501kts
28-May-15 19:15 33.423650 -111.697167 272 37912ft 497kts
28-May-15 19:16 33.429191 -111.859889 272 37910ft 498kts
28-May-15 19:17 33.434373 -112.018315 272 37896ft 501kts
28-May-15 19:18 33.439211 -112.163750 272 37897ft 500kts
28-May-15 19:19 33.444253 -112.326039 272 37911ft 495kts
28-May-15 19:20 33.448916 -112.486266 271 37905ft 496kts
28-May-15 19:21 33.453416 -112.649017 271 37901ft 496kts
28-May-15 19:22 33.457845 -112.811236 273 37901ft 495kts
28-May-15 19:23 33.481460 -112.969411 282 37902ft 497kts
28-May-15 19:24 33.509595 -113.117398 282 37902ft 497kts
28-May-15 19:25 33.539295 -113.271837 282 37902ft 495kts
28-May-15 19:26 33.565481 -113.409765 282 37923ft 498kts
28-May-15 19:27 33.594170 -113.564962 281 38967ft 499kts
28-May-15 19:28 33.623205 -113.725306 280 39390ft 511kts
28-May-15 19:29 33.652672 -113.888952 280 39859ft 515kts
28-May-15 19:30 33.676332 -114.054539 271 39866ft 511kts
28-May-15 19:31 33.683701 -114.204628 271 39861ft 509kts
28-May-15 19:32 33.690530 -114.361040 271 39861ft 507kts
28-May-15 19:33 33.697095 -114.517169 271 39861ft 506kts
28-May-15 19:34 33.706298 -114.663044 284 39859ft 512kts
28-May-15 19:35 33.730335 -114.798583 280 39871ft 513kts
28-May-15 19:36 33.755572 -114.961637 273 39866ft 513kts
28-May-15 19:37 33.768171 -115.120840 273 39860ft 509kts
28-May-15 19:38 33.780853 -115.282262 273 39848ft 513kts
28-May-15 19:39 33.793615 -115.452388 273 39820ft 522kts
28-May-15 19:40 33.806134 -115.623386 273 39821ft 522kts
28-May-15 20:00 33.869969 -117.004740 264 13777ft 368kts
28-May-15 20:01 33.858624 -117.109337 263 12201ft 317kts
28-May-15 20:02 33.847052 -117.205959 263 10985ft 290kts
28-May-15 20:03 33.835872 -117.300738 263 10984ft 289kts
28-May-15 20:04 33.826124 -117.382641 263 10673ft 222kts
28-May-15 20:05 33.816936 -117.450800 255 9337ft 213kts
28-May-15 20:06 33.796675 -117.516402 251 8021ft 208kts
28-May-15 20:07 33.775667 -117.580165 253 7968ft 208kts
28-May-15 20:08 33.790080 -117.642786 293 7069ft 203kts
28-May-15 20:09 33.813851 -117.705072 293 5320ft 215kts
28-May-15 20:10 33.838826 -117.767779 293 3983ft 198kts
28-May-15 20:11 33.810647 -117.805960 193 3390ft 197kts
28-May-15 20:12 33.759319 -117.819285 193 2631ft 181kts
28-May-15 20:13 33.714359 -117.844347 208 988ft 155kts
28-May-15 20:14 33.679050 -117.866726 209 69ft 120kts
28-May-15 20:15 33.669288 -117.871785 131 69ft 0kts
28-May-15 20:16 33.669288 -117.871785 131 69ft 0kts
28-May-15 20:17 33.669288 -117.871785 131 69ft 0kts
28-May-15 20:18 33.669288 -117.871785 131 69ft 0kts
28-May-15 20:19 33.669288 -117.871785 131 69ft 0kts
28-May-15 20:20 33.669284 -117.871779 131 69ft 0kts
28-May-15 20:21 33.669567 -117.870470 40 69ft 10kts
28-May-15 20:22 33.673149 -117.867255 43 69ft 23kts
28-May-15 20:23 33.675108 -117.865158 118 69ft 0kts
28-May-15 20:24 33.675106 -117.865155 118 69ft 0kts
28-May-15 20:25 33.675106 -117.865155 118 69ft 0kts

Navigation Log

Ident Type
1. KDFW Airport
2. CIKAN Fix
3. EWM Navaid
4. SSO Navaid
5. BXK Navaid
6. CULTS Fix
7. JOLAR Fix
8. KSNA Airport